Time;durP1;ratioP1;P1;durP2;ratioP2;P2;SDS_P1;SDS_P2;PMS_P1;PMS_P2;Temp;Humidity;BMP_temperature;BMP_pressure;BME280_temperature;BME280_humidity;BME280_pressure;Samples;Min_cycle;Max_cycle;Signal;HPM_P1;HPM_P2
2021/10/26 00:00:24;;;;;;;6.25;3.88;;;;;;;;;;5067165;28;20060;-69
2021/10/26 00:02:50;;;;;;;7.30;4.38;;;;;;;;;;5047723;28;20028;-64
2021/10/26 00:05:16;;;;;;;6.22;3.95;;;;;;;;;;5055128;28;20021;-64
2021/10/26 00:07:42;;;;;;;7.57;4.35;;;;;;;;;;5063599;28;20487;-65
2021/10/26 00:10:08;;;;;;;10.85;4.03;;;;;;;;;;5041839;28;20111;-65
2021/10/26 00:12:34;;;;;;;7.63;4.47;;;;;;;;;;5043414;28;20426;-64
2021/10/26 00:15:01;;;;;;;6.80;4.10;;;;;;;;;;5061213;28;20400;-65
2021/10/26 00:17:27;;;;;;;22.92;4.60;;;;;;;;;;5064376;28;20099;-70
2021/10/26 00:19:53;;;;;;;16.60;4.85;;;;;;;;;;5055823;28;20165;-64
2021/10/26 00:22:19;;;;;;;15.80;5.07;;;;;;;;;;5060834;28;20026;-66
2021/10/26 00:24:45;;;;;;;15.10;4.20;;;;;;;;;;5057782;28;20037;-69
2021/10/26 00:27:11;;;;;;;15.25;5.32;;;;;;;;;;5057645;28;20442;-64
2021/10/26 00:29:37;;;;;;;15.07;5.30;;;;;;;;;;5063700;28;20049;-64
2021/10/26 00:32:04;;;;;;;28.60;5.40;;;;;;;;;;5056749;28;20024;-68
2021/10/26 00:34:30;;;;;;;18.00;4.40;;;;;;;;;;5060738;28;20096;-66
2021/10/26 00:36:56;;;;;;;18.88;5.50;;;;;;;;;;5063399;28;20524;-67
2021/10/26 00:39:22;;;;;;;12.57;4.78;;;;;;;;;;5060909;28;20024;-67
2021/10/26 00:41:48;;;;;;;15.85;4.63;;;;;;;;;;5036397;28;20029;-70
2021/10/26 00:44:14;;;;;;;9.82;4.78;;;;;;;;;;5059852;28;20458;-67
2021/10/26 00:46:40;;;;;;;8.00;4.38;;;;;;;;;;5063399;28;20036;-70
2021/10/26 00:49:11;;;;;;;9.52;4.20;;;;;;;;;;5056529;28;20037;-68
2021/10/26 00:51:38;;;;;;;11.00;4.55;;;;;;;;;;5063515;28;20070;-66
2021/10/26 00:54:05;;;;;;;12.30;4.10;;;;;;;;;;5041196;28;20061;-72
2021/10/26 00:56:32;;;;;;;19.25;4.60;;;;;;;;;;5045338;28;20768;-69
2021/10/26 00:58:58;;;;;;;13.10;3.88;;;;;;;;;;5045869;28;20024;-66
2021/10/26 01:01:24;;;;;;;9.15;4.15;;;;;;;;;;5064733;28;20095;-70
2021/10/26 01:03:50;;;;;;;15.10;4.05;;;;;;;;;;5049996;28;20026;-64
2021/10/26 01:06:16;;;;;;;8.85;3.72;;;;;;;;;;5056284;28;20025;-64
2021/10/26 01:08:43;;;;;;;8.38;3.63;;;;;;;;;;5038991;28;20037;-69
2021/10/26 01:11:09;;;;;;;12.80;4.10;;;;;;;;;;5061506;28;20436;-70
2021/10/26 01:13:35;;;;;;;14.32;3.83;;;;;;;;;;5067588;28;20023;-70
2021/10/26 01:16:02;;;;;;;13.27;3.80;;;;;;;;;;5050969;28;20023;-70
2021/10/26 01:18:28;;;;;;;20.05;4.25;;;;;;;;;;5056578;28;20101;-71
2021/10/26 01:20:54;;;;;;;19.45;3.85;;;;;;;;;;5048009;28;20028;-72
2021/10/26 01:23:21;;;;;;;9.73;3.38;;;;;;;;;;5044875;28;20017;-71
2021/10/26 01:25:47;;;;;;;8.35;3.30;;;;;;;;;;5051167;28;20082;-71
2021/10/26 01:28:14;;;;;;;11.90;3.25;;;;;;;;;;5063604;28;20059;-71
2021/10/26 01:30:40;;;;;;;14.45;3.47;;;;;;;;;;5048028;28;20043;-70
2021/10/26 01:33:07;;;;;;;11.23;3.50;;;;;;;;;;5055841;28;20472;-70
2021/10/26 01:35:33;;;;;;;10.43;3.33;;;;;;;;;;5063912;28;20025;-71
2021/10/26 01:37:59;;;;;;;9.57;2.85;;;;;;;;;;5050418;28;20024;-70
2021/10/26 01:40:25;;;;;;;9.32;3.25;;;;;;;;;;5056137;28;20016;-71
2021/10/26 01:42:52;;;;;;;8.70;2.70;;;;;;;;;;5066353;28;20096;-71
2021/10/26 01:45:18;;;;;;;8.68;3.17;;;;;;;;;;5059891;28;20461;-70
2021/10/26 01:47:44;;;;;;;9.23;3.15;;;;;;;;;;5055277;28;20021;-71
2021/10/26 01:50:11;;;;;;;7.68;3.13;;;;;;;;;;5052416;28;20040;-70
2021/10/26 01:52:37;;;;;;;7.78;2.95;;;;;;;;;;5051670;28;20063;-71
2021/10/26 01:55:03;;;;;;;8.98;2.90;;;;;;;;;;5060727;28;20029;-70
2021/10/26 01:57:30;;;;;;;6.32;2.83;;;;;;;;;;5053411;28;20036;-71
2021/10/26 01:59:57;;;;;;;6.05;2.75;;;;;;;;;;5064326;28;20471;-71
2021/10/26 02:02:24;;;;;;;5.57;2.47;;;;;;;;;;5061484;28;20019;-71
2021/10/26 02:04:50;;;;;;;7.57;2.60;;;;;;;;;;5052915;28;20033;-71
2021/10/26 02:07:16;;;;;;;7.03;2.60;;;;;;;;;;5035652;28;20025;-71
2021/10/26 02:09:42;;;;;;;13.00;2.67;;;;;;;;;;5046188;28;20034;-71
2021/10/26 02:12:08;;;;;;;4.15;2.10;;;;;;;;;;5056729;28;20516;-70
2021/10/26 02:14:34;;;;;;;9.05;2.92;;;;;;;;;;5058819;28;20388;-70
2021/10/26 02:17:01;;;;;;;8.25;2.53;;;;;;;;;;5062629;28;20444;-71
2021/10/26 02:19:27;;;;;;;6.07;2.90;;;;;;;;;;5053125;28;20480;-71
2021/10/26 02:21:54;;;;;;;7.45;2.20;;;;;;;;;;5045079;28;20036;-70
2021/10/26 02:24:20;;;;;;;8.10;3.10;;;;;;;;;;5052256;28;20108;-70
2021/10/26 02:26:46;;;;;;;6.22;2.50;;;;;;;;;;5057787;28;20021;-70
2021/10/26 02:29:13;;;;;;;4.82;2.20;;;;;;;;;;5053450;28;20484;-69
2021/10/26 02:31:42;;;;;;;5.82;2.38;;;;;;;;;;5066980;28;20039;-71
2021/10/26 02:34:12;;;;;;;8.30;2.45;;;;;;;;;;5053935;28;20424;-70
2021/10/26 02:36:38;;;;;;;4.95;2.30;;;;;;;;;;5052699;28;20056;-71
2021/10/26 02:39:05;;;;;;;6.05;2.45;;;;;;;;;;5057267;28;20055;-70
2021/10/26 02:41:31;;;;;;;5.97;2.38;;;;;;;;;;5056907;28;20021;-71
2021/10/26 02:43:58;;;;;;;9.90;2.47;;;;;;;;;;5060056;28;20025;-69
2021/10/26 02:46:24;;;;;;;4.95;2.00;;;;;;;;;;5042115;28;20084;-70
2021/10/26 02:48:50;;;;;;;7.97;1.90;;;;;;;;;;5056407;28;20029;-70
2021/10/26 02:51:16;;;;;;;7.78;2.00;;;;;;;;;;5061977;28;20111;-70
2021/10/26 02:53:43;;;;;;;5.35;2.17;;;;;;;;;;5059234;28;20033;-68
2021/10/26 02:56:09;;;;;;;5.20;2.20;;;;;;;;;;5070401;28;20021;-70
2021/10/26 02:58:35;;;;;;;6.50;2.00;;;;;;;;;;5067004;28;20089;-70
2021/10/26 03:01:01;;;;;;;6.88;1.80;;;;;;;;;;5058184;28;20078;-68
2021/10/26 03:03:28;;;;;;;4.15;2.10;;;;;;;;;;5056624;28;20376;-69
2021/10/26 03:05:54;;;;;;;4.60;1.98;;;;;;;;;;5066595;28;20488;-70
2021/10/26 03:08:20;;;;;;;4.35;1.80;;;;;;;;;;5067183;28;20025;-70
2021/10/26 03:10:46;;;;;;;3.92;2.08;;;;;;;;;;5047349;28;20086;-69
2021/10/26 03:13:12;;;;;;;4.25;2.20;;;;;;;;;;5045765;28;20032;-70
2021/10/26 03:15:38;;;;;;;5.03;2.05;;;;;;;;;;5068928;28;20025;-70
2021/10/26 03:18:04;;;;;;;4.45;2.00;;;;;;;;;;5045259;28;20045;-71
2021/10/26 03:20:30;;;;;;;5.13;2.03;;;;;;;;;;5064948;28;20025;-66
2021/10/26 03:22:57;;;;;;;5.30;1.90;;;;;;;;;;5054289;28;20027;-70
2021/10/26 03:25:23;;;;;;;4.78;2.17;;;;;;;;;;5063378;28;20380;-67
2021/10/26 03:27:50;;;;;;;4.30;1.88;;;;;;;;;;5049091;28;20035;-64
2021/10/26 03:30:16;;;;;;;6.70;1.75;;;;;;;;;;5053339;28;20086;-64
2021/10/26 03:32:42;;;;;;;4.05;1.70;;;;;;;;;;5036618;28;20025;-70
2021/10/26 03:35:08;;;;;;;6.70;1.58;;;;;;;;;;5050163;28;20044;-71
2021/10/26 03:37:36;;;;;;;4.15;2.03;;;;;;;;;;5055515;28;20499;-70
2021/10/26 03:40:02;;;;;;;4.00;1.85;;;;;;;;;;5064481;28;20021;-71
2021/10/26 03:42:28;;;;;;;5.68;1.63;;;;;;;;;;5060656;28;20020;-67
2021/10/26 03:44:54;;;;;;;7.55;1.73;;;;;;;;;;5064206;28;20078;-70
2021/10/26 03:47:21;;;;;;;2.10;1.35;;;;;;;;;;5059521;28;20032;-65
2021/10/26 03:49:48;;;;;;;2.00;1.45;;;;;;;;;;5050614;28;20033;-70
2021/10/26 03:52:14;;;;;;;3.03;1.55;;;;;;;;;;5060600;28;20384;-63
2021/10/26 03:54:43;;;;;;;4.68;1.77;;;;;;;;;;5055031;28;20033;-66
2021/10/26 03:57:11;;;;;;;4.18;1.83;;;;;;;;;;5033549;28;20029;-68
2021/10/26 03:59:37;;;;;;;4.13;1.52;;;;;;;;;;5060289;28;20170;-70
2021/10/26 04:02:18;;;;;;;6.97;1.67;;;;;;;;;;5040276;28;20463;-70
2021/10/26 04:04:44;;;;;;;6.63;1.80;;;;;;;;;;5060941;28;20022;-70
2021/10/26 04:07:10;;;;;;;3.83;1.70;;;;;;;;;;5061984;28;20017;-70
2021/10/26 04:09:52;;;;;;;3.63;1.45;;;;;;;;;;5063916;28;20032;-70
2021/10/26 04:14:48;;;;;;;3.33;1.40;;;;;;;;;;5057870;28;20020;-71
2021/10/26 04:17:14;;;;;;;4.53;1.30;;;;;;;;;;5067247;28;20029;-70
2021/10/26 04:19:40;;;;;;;4.00;1.55;;;;;;;;;;5062052;28;20081;-70
2021/10/26 04:22:07;;;;;;;4.03;1.70;;;;;;;;;;5062648;28;20021;-70
2021/10/26 04:24:33;;;;;;;3.92;1.77;;;;;;;;;;5066658;28;20548;-69
2021/10/26 04:26:59;;;;;;;1.95;1.27;;;;;;;;;;5062426;28;20107;-70
2021/10/26 04:29:25;;;;;;;5.95;1.30;;;;;;;;;;5045348;28;20056;-70
2021/10/26 04:31:50;;;;;;;4.22;1.50;;;;;;;;;;5056933;28;20047;-71
2021/10/26 04:34:16;;;;;;;3.60;1.55;;;;;;;;;;5059108;28;20459;-68
2021/10/26 04:36:42;;;;;;;4.20;1.52;;;;;;;;;;5040375;28;20067;-68
2021/10/26 04:39:08;;;;;;;6.63;1.70;;;;;;;;;;5068148;28;20025;-69
2021/10/26 04:41:34;;;;;;;7.57;1.65;;;;;;;;;;5057215;28;20045;-70
2021/10/26 04:44:02;;;;;;;4.40;1.30;;;;;;;;;;5050477;28;20029;-69
2021/10/26 04:46:30;;;;;;;5.43;1.27;;;;;;;;;;5049162;28;20021;-70
2021/10/26 04:48:56;;;;;;;12.45;1.60;;;;;;;;;;5066133;28;20025;-70
2021/10/26 04:51:22;;;;;;;4.65;1.58;;;;;;;;;;5058018;28;20464;-71
2021/10/26 04:53:48;;;;;;;5.38;1.58;;;;;;;;;;5040464;28;20384;-69
2021/10/26 04:56:14;;;;;;;6.25;1.45;;;;;;;;;;5059407;28;20433;-70
2021/10/26 04:58:40;;;;;;;3.42;1.40;;;;;;;;;;5039760;28;20030;-66
2021/10/26 05:01:06;;;;;;;5.53;1.65;;;;;;;;;;5058563;28;20017;-65
2021/10/26 05:03:32;;;;;;;6.25;1.67;;;;;;;;;;5064888;28;20029;-66
2021/10/26 05:05:58;;;;;;;7.43;1.50;;;;;;;;;;5036074;28;20424;-69
2021/10/26 05:08:25;;;;;;;7.10;1.52;;;;;;;;;;5060283;28;20100;-70
2021/10/26 05:10:51;;;;;;;4.93;1.40;;;;;;;;;;5068074;28;20115;-69
2021/10/26 05:13:17;;;;;;;7.30;1.20;;;;;;;;;;5068543;28;20025;-69
2021/10/26 05:15:43;;;;;;;8.88;1.75;;;;;;;;;;5044749;28;20028;-66
2021/10/26 05:18:16;;;;;;;7.78;1.60;;;;;;;;;;5064659;28;20106;-68
2021/10/26 05:20:43;;;;;;;3.53;1.40;;;;;;;;;;5060763;28;20519;-67
2021/10/26 05:23:10;;;;;;;10.18;1.70;;;;;;;;;;5059969;28;20025;-69
2021/10/26 05:25:37;;;;;;;7.22;1.45;;;;;;;;;;5042535;28;20021;-67
2021/10/26 05:28:03;;;;;;;3.83;1.38;;;;;;;;;;5061430;28;20796;-63
2021/10/26 05:30:30;;;;;;;8.65;1.70;;;;;;;;;;5061050;28;20072;-63
2021/10/26 05:32:56;;;;;;;5.63;1.40;;;;;;;;;;5040587;28;20079;-67
2021/10/26 05:35:22;;;;;;;5.60;1.30;;;;;;;;;;5057418;28;20095;-70
2021/10/26 05:37:48;;;;;;;3.72;1.40;;;;;;;;;;5047698;28;20027;-67
2021/10/26 05:40:14;;;;;;;2.40;1.30;;;;;;;;;;5065337;28;20605;-68
2021/10/26 05:42:40;;;;;;;4.53;1.77;;;;;;;;;;5064452;28;20058;-70
2021/10/26 05:45:06;;;;;;;3.33;1.50;;;;;;;;;;5044083;28;20456;-68
2021/10/26 05:47:32;;;;;;;3.85;1.40;;;;;;;;;;5070275;28;20017;-69
2021/10/26 05:49:58;;;;;;;4.38;1.30;;;;;;;;;;5069932;28;20449;-70
2021/10/26 05:52:24;;;;;;;8.07;1.77;;;;;;;;;;5064961;28;20464;-70
2021/10/26 05:54:50;;;;;;;9.23;1.35;;;;;;;;;;5038633;28;20077;-67
2021/10/26 05:57:16;;;;;;;10.02;1.50;;;;;;;;;;5063172;28;20020;-68
2021/10/26 05:59:42;;;;;;;12.77;1.77;;;;;;;;;;5056277;28;20028;-66
2021/10/26 06:02:09;;;;;;;10.93;1.73;;;;;;;;;;5033226;28;20029;-63
2021/10/26 06:04:35;;;;;;;7.05;1.70;;;;;;;;;;5062382;28;20021;-68
2021/10/26 06:07:01;;;;;;;10.45;1.55;;;;;;;;;;5060417;28;20102;-68
2021/10/26 06:09:30;;;;;;;8.00;1.45;;;;;;;;;;5061804;28;20063;-65
2021/10/26 06:11:57;;;;;;;9.48;1.50;;;;;;;;;;5059015;28;20021;-70
2021/10/26 06:14:23;;;;;;;5.78;1.50;;;;;;;;;;5040017;28;20021;-69
2021/10/26 06:16:50;;;;;;;11.57;1.50;;;;;;;;;;5043022;28;20027;-66
2021/10/26 06:19:16;;;;;;;7.05;1.95;;;;;;;;;;5030258;28;20017;-64
2021/10/26 06:21:42;;;;;;;9.27;2.03;;;;;;;;;;5058203;28;20048;-62
2021/10/26 06:24:08;;;;;;;8.85;1.90;;;;;;;;;;5054059;28;20082;-63
2021/10/26 06:26:33;;;;;;;7.80;1.85;;;;;;;;;;5041583;28;20021;-63
2021/10/26 06:29:00;;;;;;;17.80;2.00;;;;;;;;;;5058539;28;20045;-62
2021/10/26 06:31:27;;;;;;;8.73;1.98;;;;;;;;;;5057031;28;20033;-63
2021/10/26 06:33:53;;;;;;;10.52;1.70;;;;;;;;;;5061239;28;20048;-64
2021/10/26 06:36:19;;;;;;;13.68;2.03;;;;;;;;;;5037133;28;20053;-65
2021/10/26 06:38:45;;;;;;;8.25;1.90;;;;;;;;;;5040420;28;20383;-64
2021/10/26 06:41:11;;;;;;;49.90;2.50;;;;;;;;;;5060921;28;20095;-63
2021/10/26 06:43:37;;;;;;;20.48;2.85;;;;;;;;;;5062477;28;20028;-63
2021/10/26 06:46:04;;;;;;;14.60;1.98;;;;;;;;;;5060079;28;20026;-63
2021/10/26 06:48:30;;;;;;;12.40;2.42;;;;;;;;;;5055390;28;20040;-64
2021/10/26 06:50:56;;;;;;;3.90;1.52;;;;;;;;;;5040742;28;20044;-63
2021/10/26 06:53:23;;;;;;;8.25;2.17;;;;;;;;;;5062429;28;20020;-62
2021/10/26 06:55:50;;;;;;;12.40;2.15;;;;;;;;;;5063464;28;20045;-64
2021/10/26 06:58:16;;;;;;;8.65;1.63;;;;;;;;;;5060544;28;20056;-63
2021/10/26 07:00:43;;;;;;;9.18;1.75;;;;;;;;;;5045937;28;20051;-64
2021/10/26 07:03:09;;;;;;;4.35;1.80;;;;;;;;;;5056810;28;20025;-64
2021/10/26 07:05:37;;;;;;;4.60;2.08;;;;;;;;;;5055761;28;20024;-63
2021/10/26 07:08:03;;;;;;;5.38;1.65;;;;;;;;;;5061947;28;20140;-64
2021/10/26 07:10:29;;;;;;;8.32;1.60;;;;;;;;;;5059702;28;20034;-63
2021/10/26 07:12:56;;;;;;;23.48;2.13;;;;;;;;;;5061234;28;20163;-64
2021/10/26 07:15:22;;;;;;;5.85;1.50;;;;;;;;;;5056610;28;20075;-66
2021/10/26 07:17:48;;;;;;;14.40;1.73;;;;;;;;;;5055880;28;20461;-64
2021/10/26 07:20:16;;;;;;;6.07;1.55;;;;;;;;;;5062601;28;20013;-63
2021/10/26 07:22:49;;;;;;;7.00;1.80;;;;;;;;;;5061041;28;20159;-63
2021/10/26 07:25:15;;;;;;;7.47;1.58;;;;;;;;;;5065022;28;20453;-62
2021/10/26 07:27:41;;;;;;;6.50;1.85;;;;;;;;;;5060636;28;20464;-63
2021/10/26 07:30:10;;;;;;;11.32;1.83;;;;;;;;;;5061041;28;20056;-65
2021/10/26 07:32:36;;;;;;;7.43;1.77;;;;;;;;;;5066203;28;20478;-64
2021/10/26 07:35:03;;;;;;;11.23;1.80;;;;;;;;;;5043566;28;20063;-68
2021/10/26 07:37:34;;;;;;;5.13;1.77;;;;;;;;;;5064820;28;20063;-70
2021/10/26 07:40:00;;;;;;;4.65;1.52;;;;;;;;;;5069583;28;20085;-69
2021/10/26 07:42:26;;;;;;;7.15;1.88;;;;;;;;;;5060179;28;20017;-65
2021/10/26 07:44:52;;;;;;;5.20;1.52;;;;;;;;;;5070521;28;20368;-69
2021/10/26 07:47:20;;;;;;;5.78;1.52;;;;;;;;;;5064755;28;20013;-68
2021/10/26 07:49:47;;;;;;;4.18;1.73;;;;;;;;;;5057434;28;20025;-66
2021/10/26 07:52:14;;;;;;;4.00;1.38;;;;;;;;;;5063813;28;20056;-68
2021/10/26 07:54:41;;;;;;;4.95;1.40;;;;;;;;;;5043676;28;20313;-71
2021/10/26 07:57:08;;;;;;;8.23;1.58;;;;;;;;;;5061937;28;20427;-67
2021/10/26 07:59:34;;;;;;;3.22;1.08;;;;;;;;;;5043104;28;20028;-69
2021/10/26 08:02:01;;;;;;;2.95;1.38;;;;;;;;;;5056497;28;20420;-67
2021/10/26 08:04:27;;;;;;;7.60;1.20;;;;;;;;;;5067654;28;20017;-68
2021/10/26 08:06:54;;;;;;;4.97;1.42;;;;;;;;;;5061869;28;20078;-67
2021/10/26 08:09:20;;;;;;;4.97;1.20;;;;;;;;;;5059620;28;20023;-69
2021/10/26 08:11:47;;;;;;;4.47;1.33;;;;;;;;;;5059679;28;20542;-67
2021/10/26 08:14:13;;;;;;;6.53;1.45;;;;;;;;;;5066599;28;20044;-67
2021/10/26 08:16:40;;;;;;;3.47;1.20;;;;;;;;;;5059205;28;20408;-64
2021/10/26 08:19:06;;;;;;;7.43;1.50;;;;;;;;;;5058376;28;20095;-65
2021/10/26 08:21:32;;;;;;;3.85;1.30;;;;;;;;;;5052484;28;20495;-66
2021/10/26 08:24:00;;;;;;;5.50;1.65;;;;;;;;;;5057425;28;20053;-63
2021/10/26 08:26:56;;;;;;;4.82;1.65;;;;;;;;;;5057276;28;20063;-66
2021/10/26 08:34:51;;;;;;;9.35;2.15;;;;;;;;;;5059216;28;20032;-62
2021/10/26 08:36:56;;;;;;;7.60;1.88;;;;;;;;;;5056916;28;20060;-61
2021/10/26 08:39:22;;;;;;;8.85;1.92;;;;;;;;;;5042666;28;20124;-62
2021/10/26 08:41:49;;;;;;;8.20;1.73;;;;;;;;;;5061984;28;20103;-62
2021/10/26 08:44:16;;;;;;;10.40;1.98;;;;;;;;;;5061061;28;20108;-62
2021/10/26 08:46:43;;;;;;;7.75;1.92;;;;;;;;;;5058632;28;20085;-62
2021/10/26 08:49:11;;;;;;;9.55;2.20;;;;;;;;;;5056874;28;20112;-62
2021/10/26 08:51:38;;;;;;;7.55;1.63;;;;;;;;;;5057510;28;20483;-63
2021/10/26 08:54:04;;;;;;;13.43;1.90;;;;;;;;;;5055965;28;20019;-62
2021/10/26 08:56:30;;;;;;;6.53;1.70;;;;;;;;;;5060032;28;20404;-62
2021/10/26 08:58:56;;;;;;;7.50;1.98;;;;;;;;;;5065620;28;20081;-62
2021/10/26 09:01:23;;;;;;;7.50;1.67;;;;;;;;;;5063917;28;20444;-62
2021/10/26 09:03:50;;;;;;;7.57;2.00;;;;;;;;;;5064103;28;20017;-62
2021/10/26 09:06:24;;;;;;;8.88;1.63;;;;;;;;;;5062312;28;20119;-61
2021/10/26 09:08:54;;;;;;;16.08;2.40;;;;;;;;;;5056788;28;20682;-62
2021/10/26 09:16:50;;;;;;;6.65;2.15;;;;;;;;;;5064652;28;20083;-62
2021/10/26 09:19:26;;;;;;;8.27;1.50;;;;;;;;;;5058652;28;20019;-62
2021/10/26 09:21:55;;;;;;;4.85;1.60;;;;;;;;;;5061782;28;20031;-62
2021/10/26 09:24:22;;;;;;;6.22;1.80;;;;;;;;;;5064359;28;20021;-62
2021/10/26 09:26:51;;;;;;;4.00;1.75;;;;;;;;;;5043534;28;20920;-62
2021/10/26 09:29:18;;;;;;;6.80;1.75;;;;;;;;;;5063931;28;20032;-62
2021/10/26 09:31:45;;;;;;;6.75;1.80;;;;;;;;;;5036233;28;20055;-62
2021/10/26 09:34:15;;;;;;;5.70;2.15;;;;;;;;;;5066022;28;20124;-62
2021/10/26 09:36:41;;;;;;;5.10;1.60;;;;;;;;;;5065101;28;20024;-62
2021/10/26 09:39:08;;;;;;;8.18;1.88;;;;;;;;;;5063534;28;20043;-62
2021/10/26 09:41:53;;;;;;;13.30;1.65;;;;;;;;;;5053691;28;20043;-62
2021/10/26 09:44:19;;;;;;;7.03;1.58;;;;;;;;;;5063367;28;20044;-62
2021/10/26 09:46:55;;;;;;;4.90;1.50;;;;;;;;;;5053025;28;20025;-62
2021/10/26 09:49:24;;;;;;;12.27;1.92;;;;;;;;;;5059302;28;20464;-62
2021/10/26 09:52:06;;;;;;;14.65;1.65;;;;;;;;;;5059840;28;20033;-62
2021/10/26 09:54:32;;;;;;;19.63;2.30;;;;;;;;;;5055646;28;20024;-63
2021/10/26 09:57:05;;;;;;;8.77;1.92;;;;;;;;;;5062102;28;20468;-62
2021/10/26 09:59:32;;;;;;;13.40;1.90;;;;;;;;;;5058798;28;20024;-61
2021/10/26 10:01:58;;;;;;;13.55;2.05;;;;;;;;;;5056589;28;20037;-62
2021/10/26 10:04:28;;;;;;;9.90;1.80;;;;;;;;;;5057517;28;20357;-62
2021/10/26 10:06:54;;;;;;;27.27;1.98;;;;;;;;;;5057604;28;20032;-64
2021/10/26 10:09:21;;;;;;;13.70;2.00;;;;;;;;;;5038356;28;20353;-63
2021/10/26 10:12:13;;;;;;;20.63;2.10;;;;;;;;;;5051414;28;20033;-62
2021/10/26 10:14:41;;;;;;;17.88;2.05;;;;;;;;;;5047134;28;20041;-63
2021/10/26 10:17:10;;;;;;;18.33;1.95;;;;;;;;;;5064268;28;20558;-63
2021/10/26 10:19:37;;;;;;;14.48;2.17;;;;;;;;;;5038890;28;20020;-63
2021/10/26 10:22:10;;;;;;;9.07;1.60;;;;;;;;;;5055247;28;20017;-63
2021/10/26 10:24:40;;;;;;;11.98;1.92;;;;;;;;;;5063719;28;20024;-63
2021/10/26 10:27:07;;;;;;;15.27;2.10;;;;;;;;;;5055495;28;20027;-63
2021/10/26 10:29:34;;;;;;;7.10;1.75;;;;;;;;;;5063242;28;20054;-61
2021/10/26 10:32:00;;;;;;;12.65;1.90;;;;;;;;;;5058331;28;20227;-61
2021/10/26 10:34:26;;;;;;;11.18;1.63;;;;;;;;;;5058953;28;20021;-61
2021/10/26 10:36:53;;;;;;;16.23;2.35;;;;;;;;;;5053474;28;20023;-62
2021/10/26 10:39:27;;;;;;;37.00;2.67;;;;;;;;;;5055217;28;20078;-63
2021/10/26 10:42:09;;;;;;;31.00;2.88;;;;;;;;;;5058879;28;20484;-67
2021/10/26 10:44:35;;;;;;;16.73;2.25;;;;;;;;;;5056316;28;20694;-63
2021/10/26 10:47:02;;;;;;;13.73;1.80;;;;;;;;;;5059499;28;20024;-64
2021/10/26 10:49:47;;;;;;;14.77;2.13;;;;;;;;;;5057136;28;20013;-65
2021/10/26 10:52:18;;;;;;;39.70;3.13;;;;;;;;;;5055860;28;20021;-62
2021/10/26 10:54:54;;;;;;;65.40;3.72;;;;;;;;;;5061403;28;20033;-62
2021/10/26 10:57:20;;;;;;;89.60;4.10;;;;;;;;;;5058206;28;20052;-62
2021/10/26 10:59:46;;;;;;;36.13;2.83;;;;;;;;;;5046131;28;20036;-62
2021/10/26 11:02:22;;;;;;;53.67;3.28;;;;;;;;;;5058134;28;20481;-62
2021/10/26 11:04:48;;;;;;;40.00;2.78;;;;;;;;;;5046563;28;20027;-62
2021/10/26 11:07:14;;;;;;;28.67;2.70;;;;;;;;;;5055678;28;20020;-64
2021/10/26 11:09:41;;;;;;;38.53;2.78;;;;;;;;;;5064081;28;20029;-62
2021/10/26 11:12:10;;;;;;;28.23;3.15;;;;;;;;;;5060476;28;20033;-62
2021/10/26 11:14:46;;;;;;;24.15;2.30;;;;;;;;;;5060242;28;20018;-62
2021/10/26 11:17:31;;;;;;;25.27;3.10;;;;;;;;;;5061450;28;20036;-62
2021/10/26 11:19:57;;;;;;;16.58;2.88;;;;;;;;;;5055118;28;20033;-62
2021/10/26 11:22:42;;;;;;;19.00;2.10;;;;;;;;;;5062767;28;20023;-63
2021/10/26 11:25:23;;;;;;;15.63;1.88;;;;;;;;;;5052130;28;20483;-62
2021/10/26 11:27:49;;;;;;;26.05;2.33;;;;;;;;;;5056741;28;20041;-64
2021/10/26 11:30:27;;;;;;;14.68;2.00;;;;;;;;;;5059242;28;20037;-63
2021/10/26 11:33:12;;;;;;;15.68;2.33;;;;;;;;;;5058543;28;20108;-62
2021/10/26 11:36:05;;;;;;;14.43;1.98;;;;;;;;;;5061435;28;20048;-62
2021/10/26 11:38:32;;;;;;;14.45;2.05;;;;;;;;;;5063010;28;20483;-63
2021/10/26 11:40:58;;;;;;;15.45;1.90;;;;;;;;;;5056753;28;20036;-62
2021/10/26 11:43:24;;;;;;;7.25;1.90;;;;;;;;;;5063346;28;20020;-66
2021/10/26 11:45:56;;;;;;;17.70;2.78;;;;;;;;;;5061337;28;20029;-62
2021/10/26 11:48:42;;;;;;;26.55;2.78;;;;;;;;;;5063402;28;20044;-62
2021/10/26 11:51:23;;;;;;;23.88;2.45;;;;;;;;;;5058047;28;20722;-63
2021/10/26 11:53:51;;;;;;;22.35;2.25;;;;;;;;;;5038108;28;20107;-62
2021/10/26 11:56:20;;;;;;;22.02;2.55;;;;;;;;;;5044786;28;20025;-62
2021/10/26 11:58:55;;;;;;;14.75;2.10;;;;;;;;;;5043036;28;20078;-63
2021/10/26 12:01:23;;;;;;;22.30;2.60;;;;;;;;;;5063625;28;20116;-64
2021/10/26 12:03:49;;;;;;;18.38;2.10;;;;;;;;;;5056666;28;20530;-62
2021/10/26 12:06:28;;;;;;;13.98;2.50;;;;;;;;;;5059916;28;20048;-65
2021/10/26 12:09:01;;;;;;;13.23;1.83;;;;;;;;;;5058138;28;20043;-63
2021/10/26 12:11:32;;;;;;;12.30;1.90;;;;;;;;;;5062794;28;20025;-62
2021/10/26 12:14:15;;;;;;;25.88;3.08;;;;;;;;;;5061452;28;20024;-64
2021/10/26 12:16:59;;;;;;;25.27;2.55;;;;;;;;;;5062983;28;20068;-66
2021/10/26 12:19:27;;;;;;;11.32;2.05;;;;;;;;;;5043656;28;20148;-64
2021/10/26 12:21:53;;;;;;;36.03;2.13;;;;;;;;;;5059184;28;20021;-64
2021/10/26 12:24:31;;;;;;;25.05;3.03;;;;;;;;;;5046293;28;20021;-66
2021/10/26 12:27:08;;;;;;;41.90;2.53;;;;;;;;;;5060002;28;20451;-63
2021/10/26 12:29:35;;;;;;;24.02;2.47;;;;;;;;;;5060706;28;20037;-63
2021/10/26 12:32:03;;;;;;;30.02;2.75;;;;;;;;;;5060568;28;20486;-63
2021/10/26 12:34:29;;;;;;;17.73;2.50;;;;;;;;;;5056242;28;20082;-63
2021/10/26 12:37:15;;;;;;;42.00;3.30;;;;;;;;;;5043231;28;20035;-63
2021/10/26 12:39:43;;;;;;;21.67;2.00;;;;;;;;;;5054668;28;20044;-62
2021/10/26 12:42:27;;;;;;;39.78;3.08;;;;;;;;;;5057296;28;20074;-62
2021/10/26 12:44:56;;;;;;;20.20;2.28;;;;;;;;;;5055857;28;20476;-62
2021/10/26 12:47:22;;;;;;;12.20;2.13;;;;;;;;;;5060282;28;20040;-62
2021/10/26 12:49:48;;;;;;;8.32;2.13;;;;;;;;;;5056747;28;20033;-62
2021/10/26 12:52:15;;;;;;;13.38;2.30;;;;;;;;;;5056636;28;20051;-63
2021/10/26 12:54:41;;;;;;;9.55;2.30;;;;;;;;;;5059600;28;20150;-62
2021/10/26 12:57:07;;;;;;;9.57;1.77;;;;;;;;;;5055735;28;20022;-63
2021/10/26 12:59:38;;;;;;;12.13;1.92;;;;;;;;;;5055389;28;20074;-62
2021/10/26 13:02:07;;;;;;;13.05;2.22;;;;;;;;;;5060507;28;20041;-62
2021/10/26 13:04:36;;;;;;;11.90;1.80;;;;;;;;;;5064611;28;20029;-62
2021/10/26 13:07:06;;;;;;;10.15;2.00;;;;;;;;;;5064735;28;20070;-63
2021/10/26 13:09:37;;;;;;;10.68;1.60;;;;;;;;;;5061831;28;20060;-63
2021/10/26 13:12:07;;;;;;;10.48;2.60;;;;;;;;;;5061530;28;20031;-63
2021/10/26 13:14:42;;;;;;;10.65;2.03;;;;;;;;;;5060827;28;20020;-62
2021/10/26 13:17:28;;;;;;;9.98;1.67;;;;;;;;;;5062016;28;20025;-63
2021/10/26 13:20:13;;;;;;;24.65;1.98;;;;;;;;;;5061116;28;20103;-62
2021/10/26 13:22:50;;;;;;;21.65;2.15;;;;;;;;;;5066895;28;20043;-64
2021/10/26 13:25:16;;;;;;;7.28;1.90;;;;;;;;;;5060522;28;20029;-62
2021/10/26 13:27:43;;;;;;;12.63;1.73;;;;;;;;;;5060330;28;20025;-62
2021/10/26 13:30:10;;;;;;;8.55;1.52;;;;;;;;;;5053820;28;20073;-64
2021/10/26 13:32:37;;;;;;;6.28;1.77;;;;;;;;;;5059113;28;20078;-63
2021/10/26 13:35:04;;;;;;;6.95;1.38;;;;;;;;;;5053181;28;20487;-63
2021/10/26 13:37:30;;;;;;;9.38;1.30;;;;;;;;;;5061777;28;20056;-63
2021/10/26 13:39:56;;;;;;;17.60;2.13;;;;;;;;;;5058271;28;20078;-63
2021/10/26 13:42:22;;;;;;;12.30;1.38;;;;;;;;;;5059788;28;20066;-64
2021/10/26 13:44:48;;;;;;;9.40;1.02;;;;;;;;;;5057720;28;20457;-62
2021/10/26 13:47:15;;;;;;;4.30;1.30;;;;;;;;;;5056343;28;20025;-63
2021/10/26 13:49:41;;;;;;;15.65;1.77;;;;;;;;;;5058256;28;20082;-62
2021/10/26 13:52:08;;;;;;;11.32;1.33;;;;;;;;;;5056812;28;20016;-64
2021/10/26 13:54:33;;;;;;;4.18;1.15;;;;;;;;;;5057338;28;20051;-63
2021/10/26 13:57:00;;;;;;;6.35;1.50;;;;;;;;;;5054883;28;20095;-63
2021/10/26 13:59:25;;;;;;;7.82;1.30;;;;;;;;;;5043855;28;20532;-62
2021/10/26 14:01:51;;;;;;;10.05;1.10;;;;;;;;;;5051230;28;20037;-64
2021/10/26 14:04:17;;;;;;;7.53;1.10;;;;;;;;;;5060280;28;20531;-68
2021/10/26 14:06:45;;;;;;;11.25;1.25;;;;;;;;;;5058125;28;20017;-63
2021/10/26 14:09:11;;;;;;;16.75;1.10;;;;;;;;;;5059249;28;20032;-63
2021/10/26 14:11:37;;;;;;;5.43;0.80;;;;;;;;;;5062868;28;20769;-63
2021/10/26 14:14:04;;;;;;;5.65;1.02;;;;;;;;;;5043442;28;20044;-63
2021/10/26 14:16:31;;;;;;;5.57;1.00;;;;;;;;;;5061995;28;20025;-69
2021/10/26 14:18:57;;;;;;;4.20;1.00;;;;;;;;;;5041080;28;20532;-64
2021/10/26 14:21:23;;;;;;;4.07;0.93;;;;;;;;;;5062701;28;20051;-70
2021/10/26 14:23:49;;;;;;;5.45;1.10;;;;;;;;;;5045455;28;20056;-62
2021/10/26 14:26:15;;;;;;;10.57;1.13;;;;;;;;;;5062959;28;20017;-68
2021/10/26 14:28:41;;;;;;;5.22;0.90;;;;;;;;;;5064820;28;20044;-63
2021/10/26 14:31:08;;;;;;;8.77;1.17;;;;;;;;;;5060711;28;20086;-64
2021/10/26 14:33:36;;;;;;;8.25;1.40;;;;;;;;;;5064668;28;20029;-65
2021/10/26 14:36:10;;;;;;;4.03;1.00;;;;;;;;;;5063115;28;20116;-63
2021/10/26 14:38:43;;;;;;;4.15;0.90;;;;;;;;;;5073816;28;20017;-63
2021/10/26 14:57:35;;;;;;;3.90;1.08;;;;;;;;;;5017440;28;20024;-68
2021/10/26 15:00:02;;;;;;;4.68;0.90;;;;;;;;;;5070578;28;20025;-63
2021/10/26 15:02:30;;;;;;;9.63;0.82;;;;;;;;;;5050573;28;20024;-67
2021/10/26 15:04:56;;;;;;;7.05;0.90;;;;;;;;;;5067646;28;20017;-64
2021/10/26 15:07:26;;;;;;;7.10;0.95;;;;;;;;;;5068175;28;20104;-63
2021/10/26 15:09:57;;;;;;;8.55;1.08;;;;;;;;;;5066476;28;20028;-67
2021/10/26 15:12:37;;;;;;;7.15;1.35;;;;;;;;;;5062988;28;20086;-68